Airfield :
LOGIN :

Register | Disclaimer

   EN    FR    IT 

 










Legend :    VFR   Marginal VFR   IFR   Intensive IFR   Very Intensive IFR
Visi :
Ceiling :
>= 8 km
>= 3000ft
5 to 8 km
1000 to 3000 ft
1500m to 5 km
500 to 1000 ft
800 to 1500m
200 to 500 ft
< 800m
< 200 ft
Symbols :   Thunderstorms  Fog  Heavy snow  Heavy precipitations  Wind > 20 kt
SIGMETs :     Misc.  Thunderstorms  Icing  Turbulence  Mountain Waves  Volcanic Ashes







- Airport Elevation : 325 ft
- IATA code : BES
- Download approach charts


LFRB - Brest

CURRENT METAR :
  • 230600Z AUTO 15006KT CAVOK 09/05 Q1030 TEMPO 3000 MIFG

EXPIRED METARs :
  • 230530Z AUTO 13007KT CAVOK 08/04 Q1029 TEMPO 3000 MIFG
  • 230500Z AUTO 15006KT CAVOK 09/04 Q1029 TEMPO 3000 BR
  • 230430Z AUTO 12007KT CAVOK 09/04 Q1029 TEMPO 3000 BR
  • 230400Z AUTO 12006KT CAVOK 10/04 Q1029 TEMPO 3000 BR
  • 230330Z AUTO 12005KT CAVOK 10/04 Q1029 TEMPO 3000 BR

TAF TAF LFRB
Valid from the 23 at 06:00 until the 24 at 12:00 UTC


230500Z 2306/2412 14006KT CAVOK
PROB30
TEMPO 2306/2308 3000 MIFG
PROB30
TEMPO 2317/2406 BKN010
ATIS : +33 2 98 32 02 71
No reported NOTAMs for that airfield.



MET'MAP, your aeronautical weather chart ! - Copyright ORBIFLY December 2007 - Disclaimer

ORBIFLY MET'MAP TEAM :

Programming & Development : Alexandra Zaïnal
Concept & Development : Baudouin d'Aumeries
Co-Development & Prog : Marc-Olivier Méhu
Technical & hardware support : Manuel Goepfert

Contact : metmap@orbifly.com




SOURCES & CREDITS :

   NOAA